Time;durP1;ratioP1;P1;durP2;ratioP2;P2;SDS_P1;SDS_P2;PMS_P1;PMS_P2;Temp;Humidity;BMP_temperature;BMP_pressure;BME280_temperature;BME280_humidity;BME280_pressure;Samples;Min_cycle;Max_cycle;Signal;HPM_P1;HPM_P2
2023/08/18 00:02:03;;;;;;;7.57;2.80;;;16.40;99.90;;;;;;5076143;28;20040;-66
2023/08/18 00:04:29;;;;;;;9.18;3.08;;;16.40;99.90;;;;;;5076069;28;20046;-66
2023/08/18 00:06:55;;;;;;;7.40;2.70;;;16.40;99.90;;;;;;5076138;28;20083;-64
2023/08/18 00:09:21;;;;;;;8.05;3.20;;;16.30;99.90;;;;;;5059630;28;20044;-66
2023/08/18 00:11:46;;;;;;;6.38;2.80;;;16.40;99.90;;;;;;5076212;28;20449;-66
2023/08/18 00:14:12;;;;;;;6.95;2.50;;;16.30;99.90;;;;;;5075930;28;20042;-66
2023/08/18 00:16:38;;;;;;;6.90;2.35;;;16.40;99.90;;;;;;5059282;28;20047;-66
2023/08/18 00:19:03;;;;;;;6.15;2.50;;;16.30;99.90;;;;;;5075922;28;20035;-65
2023/08/18 00:21:29;;;;;;;6.45;2.30;;;16.30;99.90;;;;;;5059214;28;20040;-66
2023/08/18 00:23:58;;;;;;;6.32;2.42;;;16.30;99.90;;;;;;5059150;28;20476;-66
2023/08/18 00:26:24;;;;;;;7.43;2.78;;;16.30;99.90;;;;;;5075732;28;20092;-67
2023/08/18 00:28:52;;;;;;;6.18;2.38;;;16.30;99.90;;;;;;5093930;28;20124;-66
2023/08/18 00:31:22;;;;;;;4.82;2.38;;;16.30;99.90;;;;;;5059234;28;20039;-67
2023/08/18 00:33:56;;;;;;;6.00;2.50;;;16.30;99.90;;;;;;5075755;28;20093;-66
2023/08/18 00:36:22;;;;;;;7.85;2.80;;;16.30;99.90;;;;;;5075719;28;20040;-66
2023/08/18 00:39:02;;;;;;;7.47;2.60;;;16.30;99.90;;;;;;5055480;28;20496;-66
2023/08/18 00:41:28;;;;;;;6.18;2.50;;;16.20;99.90;;;;;;5041934;28;20056;-67
2023/08/18 00:43:54;;;;;;;6.85;2.50;;;16.20;99.90;;;;;;5055758;28;20462;-66
2023/08/18 00:46:21;;;;;;;6.88;2.67;;;16.20;99.90;;;;;;5072117;28;20044;-70
2023/08/18 00:48:48;;;;;;;5.57;2.72;;;16.30;99.90;;;;;;5072059;28;20044;-72
2023/08/18 00:51:15;;;;;;;6.32;2.70;;;16.20;99.90;;;;;;5072162;28;20051;-72
2023/08/18 00:53:42;;;;;;;5.20;2.65;;;16.20;99.90;;;;;;5072155;28;20051;-72
2023/08/18 00:56:09;;;;;;;6.13;2.72;;;16.20;99.90;;;;;;5072309;28;20064;-73
2023/08/18 00:58:38;;;;;;;6.40;2.88;;;16.20;99.90;;;;;;5072376;28;20045;-73
2023/08/18 01:01:04;;;;;;;7.63;2.97;;;16.20;99.90;;;;;;5071960;28;20115;-73
2023/08/18 01:03:31;;;;;;;6.05;2.47;;;16.20;99.90;;;;;;5054310;28;20056;-72
2023/08/18 01:05:58;;;;;;;5.88;2.67;;;16.10;99.90;;;;;;5055368;28;20048;-73
2023/08/18 01:08:28;;;;;;;6.05;2.78;;;16.20;99.90;;;;;;5056090;28;20049;-71
2023/08/18 01:10:56;;;;;;;5.50;2.72;;;16.20;99.90;;;;;;5055634;28;20048;-73
2023/08/18 01:13:42;;;;;;;7.63;3.00;;;16.20;99.90;;;;;;5072006;28;20054;-72
2023/08/18 01:16:20;;;;;;;7.72;2.80;;;16.10;99.90;;;;;;5055792;28;20041;-73
2023/08/18 01:18:47;;;;;;;5.70;3.05;;;16.10;99.90;;;;;;5055502;28;20040;-71
2023/08/18 01:21:16;;;;;;;7.50;3.40;;;16.10;99.90;;;;;;5056203;28;20035;-73
2023/08/18 01:23:43;;;;;;;6.22;3.13;;;16.10;99.90;;;;;;5072871;28;20045;-73
2023/08/18 01:26:09;;;;;;;6.80;2.90;;;16.00;99.90;;;;;;5072340;28;20047;-72
2023/08/18 01:28:35;;;;;;;8.40;2.90;;;16.00;99.90;;;;;;5055698;28;20045;-71
2023/08/18 01:31:16;;;;;;;6.75;3.00;;;16.00;99.90;;;;;;5072079;28;20048;-73
2023/08/18 01:34:23;;;;;;;7.68;3.40;;;16.10;99.90;;;;;;5072193;28;20131;-72
2023/08/18 01:36:54;;;;;;;8.10;3.00;;;16.10;99.90;;;;;;5072268;28;20076;-71
2023/08/18 01:39:21;;;;;;;6.93;3.08;;;16.10;99.90;;;;;;5072014;28;20561;-72
2023/08/18 01:41:52;;;;;;;7.40;3.47;;;16.10;99.90;;;;;;5055877;28;20071;-72
2023/08/18 01:44:21;;;;;;;7.20;3.33;;;16.10;99.90;;;;;;5072221;28;20488;-72
2023/08/18 01:46:59;;;;;;;6.40;2.97;;;16.10;99.90;;;;;;5056510;28;20067;-72
2023/08/18 01:49:25;;;;;;;8.65;3.55;;;16.10;99.90;;;;;;5072109;28;20036;-71
2023/08/18 01:51:51;;;;;;;8.70;3.20;;;16.00;99.90;;;;;;5072004;28;20048;-72
2023/08/18 01:54:17;;;;;;;8.20;3.28;;;16.10;99.90;;;;;;5038938;28;20123;-72
2023/08/18 01:56:43;;;;;;;7.82;3.10;;;16.10;99.90;;;;;;5055591;28;20090;-72
2023/08/18 01:59:08;;;;;;;9.18;3.50;;;16.10;99.90;;;;;;5071876;28;20123;-72
2023/08/18 02:01:35;;;;;;;6.78;3.38;;;16.10;99.90;;;;;;5055178;28;20119;-72
2023/08/18 02:04:01;;;;;;;7.28;3.70;;;16.10;99.90;;;;;;5071681;28;20044;-72
2023/08/18 02:06:47;;;;;;;10.43;4.38;;;16.10;99.90;;;;;;5038812;28;20045;-72
2023/08/18 02:09:21;;;;;;;8.15;3.72;;;16.10;99.90;;;;;;5054476;28;20105;-72
2023/08/18 02:11:50;;;;;;;6.22;3.35;;;16.10;99.90;;;;;;5071870;28;20044;-71
2023/08/18 02:14:18;;;;;;;7.38;3.63;;;16.10;99.90;;;;;;5039087;28;20052;-73
2023/08/18 02:16:44;;;;;;;7.70;3.78;;;16.10;99.90;;;;;;5075041;28;20040;-71
2023/08/18 02:19:10;;;;;;;9.70;3.95;;;16.10;99.90;;;;;;5075068;28;20048;-71
2023/08/18 02:21:37;;;;;;;8.23;4.30;;;16.10;99.90;;;;;;5075092;28;20037;-70
2023/08/18 02:24:04;;;;;;;8.35;4.40;;;16.10;99.90;;;;;;5075162;28;20102;-72
2023/08/18 02:26:30;;;;;;;9.70;4.80;;;16.10;99.90;;;;;;5058881;28;20067;-72
2023/08/18 02:28:59;;;;;;;9.98;4.35;;;16.10;99.90;;;;;;5058790;28;20040;-73
2023/08/18 02:31:37;;;;;;;10.80;5.40;;;16.10;99.90;;;;;;5058316;28;20127;-72
2023/08/18 02:34:03;;;;;;;11.10;4.82;;;16.10;99.90;;;;;;5075315;28;20036;-72
2023/08/18 02:36:29;;;;;;;9.00;4.45;;;16.10;99.90;;;;;;5058590;28;20047;-72
2023/08/18 02:38:58;;;;;;;11.02;4.60;;;16.10;99.90;;;;;;5058040;28;20048;-72
2023/08/18 02:41:25;;;;;;;11.05;5.32;;;16.20;99.90;;;;;;5075562;28;20139;-72
2023/08/18 02:43:51;;;;;;;12.40;5.38;;;16.20;99.90;;;;;;5058004;28;20385;-73
2023/08/18 02:46:17;;;;;;;9.93;5.00;;;16.20;99.90;;;;;;5075406;28;20040;-72
2023/08/18 02:48:43;;;;;;;12.82;5.82;;;16.20;99.90;;;;;;5058019;28;20095;-71
2023/08/18 02:51:10;;;;;;;12.68;6.55;;;16.20;99.90;;;;;;5074623;28;20045;-73
2023/08/18 02:53:44;;;;;;;7.93;4.00;;;16.10;99.90;;;;;;5074883;28;20549;-72
2023/08/18 02:56:10;;;;;;;12.27;5.50;;;16.20;99.90;;;;;;5059154;28;20045;-72
2023/08/18 02:58:47;;;;;;;14.85;6.60;;;16.20;99.90;;;;;;5075032;28;20102;-72
2023/08/18 03:01:13;;;;;;;11.85;5.70;;;16.10;99.90;;;;;;5058007;28;20039;-72
2023/08/18 03:03:39;;;;;;;9.93;5.05;;;16.10;99.90;;;;;;5074463;28;20040;-73
2023/08/18 03:06:06;;;;;;;9.70;4.78;;;16.10;99.90;;;;;;5073844;28;20052;-72
2023/08/18 03:08:36;;;;;;;12.15;6.03;;;16.10;99.90;;;;;;5041308;28;20049;-72
2023/08/18 03:11:02;;;;;;;12.82;5.75;;;16.20;99.90;;;;;;5074750;28;20098;-72
2023/08/18 03:13:28;;;;;;;10.82;5.03;;;16.20;99.90;;;;;;5074151;28;20043;-72
2023/08/18 03:15:54;;;;;;;12.20;4.93;;;16.20;99.90;;;;;;5074193;28;20040;-72
2023/08/18 03:18:20;;;;;;;13.25;5.75;;;16.20;99.90;;;;;;5073945;28;20106;-72
2023/08/18 03:20:47;;;;;;;10.65;5.20;;;16.20;99.90;;;;;;5074279;28;20040;-73
2023/08/18 03:23:17;;;;;;;9.85;4.80;;;16.20;99.90;;;;;;5074036;28;20097;-72
2023/08/18 03:25:44;;;;;;;9.50;4.80;;;16.10;99.90;;;;;;5057556;28;20048;-72
2023/08/18 03:28:13;;;;;;;9.50;4.22;;;16.10;99.90;;;;;;5073069;28;20097;-72
2023/08/18 03:30:44;;;;;;;10.23;5.20;;;16.10;99.90;;;;;;5074041;28;20044;-72
2023/08/18 03:33:11;;;;;;;;;;;16.20;99.90;;;;;;5057806;28;20090;-70
2023/08/18 03:35:58;;;;;;;10.50;5.05;;;16.10;99.90;;;;;;5069589;28;19938;-73
2023/08/18 03:38:24;;;;;;;11.15;5.78;;;16.10;99.90;;;;;;5073609;28;20187;-72
2023/08/18 03:41:14;;;;;;;10.70;5.20;;;16.20;99.90;;;;;;5073725;28;20044;-72
2023/08/18 03:43:40;;;;;;;8.68;5.10;;;16.20;99.90;;;;;;5064874;28;20048;-71
2023/08/18 03:46:33;;;;;;;8.43;4.18;;;16.20;99.90;;;;;;5073572;28;20045;-72
2023/08/18 03:49:05;;;;;;;10.77;5.70;;;16.20;99.90;;;;;;5057194;28;20051;-72
2023/08/18 03:51:34;;;;;;;9.45;5.72;;;16.20;99.90;;;;;;5057456;28;20450;-73
2023/08/18 03:54:00;;;;;;;11.25;6.30;;;16.20;99.90;;;;;;5056764;28;20039;-71
2023/08/18 03:56:29;;;;;;;10.73;5.68;;;16.20;99.90;;;;;;5073344;28;20036;-71
2023/08/18 03:58:55;;;;;;;9.20;5.80;;;16.20;99.90;;;;;;5057109;28;20036;-72
2023/08/18 04:01:29;;;;;;;11.75;6.30;;;16.20;99.90;;;;;;5056506;28;20491;-73
2023/08/18 04:03:58;;;;;;;11.02;6.45;;;16.20;99.90;;;;;;5073105;28;20047;-74
2023/08/18 04:06:24;;;;;;;9.32;5.70;;;16.20;99.90;;;;;;5056393;28;20044;-72
2023/08/18 04:09:03;;;;;;;10.38;5.65;;;16.10;99.90;;;;;;5039914;28;20047;-72
2023/08/18 04:11:29;;;;;;;13.05;7.13;;;16.10;99.90;;;;;;5072823;28;20041;-72
2023/08/18 04:14:16;;;;;;;9.15;5.47;;;16.20;99.90;;;;;;5056290;28;20036;-70
2023/08/18 04:16:45;;;;;;;9.25;5.70;;;16.10;99.90;;;;;;5059367;28;20066;-66
2023/08/18 04:19:12;;;;;;;11.82;6.28;;;16.10;99.90;;;;;;5072844;28;20136;-66
2023/08/18 04:21:37;;;;;;;9.32;5.95;;;16.10;99.90;;;;;;5072788;28;20051;-66
2023/08/18 04:24:04;;;;;;;9.70;5.85;;;16.10;99.90;;;;;;5072438;28;20040;-66
2023/08/18 04:26:36;;;;;;;9.65;6.07;;;16.10;99.90;;;;;;5039522;28;20448;-65
2023/08/18 04:29:02;;;;;;;10.88;6.43;;;16.10;99.90;;;;;;5056243;28;20044;-66
2023/08/18 04:31:28;;;;;;;11.23;6.00;;;16.10;99.90;;;;;;5056047;28;20041;-66
2023/08/18 04:33:54;;;;;;;8.70;6.03;;;16.10;99.90;;;;;;5055589;28;20052;-66
2023/08/18 04:36:32;;;;;;;9.35;6.00;;;16.10;99.90;;;;;;5055930;28;20377;-67
2023/08/18 04:39:01;;;;;;;9.40;6.70;;;16.10;99.90;;;;;;5055405;28;20055;-66
2023/08/18 04:41:27;;;;;;;10.77;6.15;;;16.20;99.90;;;;;;5072349;28;20047;-66
2023/08/18 04:43:52;;;;;;;9.90;6.07;;;16.10;99.90;;;;;;5055598;28;20037;-66
2023/08/18 04:46:18;;;;;;;9.23;6.85;;;16.10;99.90;;;;;;5072037;28;20449;-66
2023/08/18 04:48:44;;;;;;;11.63;6.78;;;16.10;99.90;;;;;;5055597;28;20131;-67
2023/08/18 04:51:10;;;;;;;11.27;7.95;;;16.10;99.90;;;;;;5072422;28;20036;-66
2023/08/18 04:53:36;;;;;;;12.25;7.15;;;16.10;99.90;;;;;;5055656;28;20539;-66
2023/08/18 04:56:03;;;;;;;12.07;6.55;;;16.20;99.90;;;;;;5071911;28;20107;-67
2023/08/18 04:58:29;;;;;;;12.00;6.60;;;16.20;99.90;;;;;;5071773;28;20048;-65
2023/08/18 05:00:57;;;;;;;9.43;6.32;;;16.20;99.90;;;;;;5071958;28;20040;-66
2023/08/18 05:03:23;;;;;;;9.35;6.70;;;16.20;99.90;;;;;;5072205;28;20114;-66
2023/08/18 05:06:08;;;;;;;11.55;7.25;;;16.20;99.90;;;;;;5055418;28;20135;-66
2023/08/18 05:08:40;;;;;;;11.07;6.63;;;16.20;99.90;;;;;;5055438;28;20048;-66
2023/08/18 05:11:11;;;;;;;10.93;6.93;;;16.20;99.90;;;;;;5055634;28;20400;-66
2023/08/18 05:13:38;;;;;;;12.50;7.68;;;16.30;99.90;;;;;;5055104;28;20105;-66
2023/08/18 05:16:04;;;;;;;11.90;7.05;;;16.20;99.90;;;;;;5072005;28;20427;-65
2023/08/18 05:18:49;;;;;;;13.52;7.30;;;16.20;99.90;;;;;;5054780;28;20067;-66
2023/08/18 05:21:22;;;;;;;10.80;6.93;;;16.20;99.90;;;;;;5071969;28;20033;-66
2023/08/18 05:23:48;;;;;;;11.05;7.15;;;16.20;99.90;;;;;;5055082;28;20086;-66
2023/08/18 05:26:13;;;;;;;10.30;6.75;;;16.30;99.90;;;;;;5055016;28;20072;-66
2023/08/18 05:28:39;;;;;;;12.05;6.78;;;16.30;99.90;;;;;;5055382;28;20049;-71
2023/08/18 05:31:07;;;;;;;12.43;7.93;;;16.30;99.90;;;;;;5071922;28;20047;-72
2023/08/18 05:33:34;;;;;;;12.20;7.82;;;16.30;99.90;;;;;;5055223;28;20032;-72
2023/08/18 05:36:00;;;;;;;11.73;6.55;;;16.30;99.90;;;;;;5055404;28;20044;-72
2023/08/18 05:38:27;;;;;;;14.02;7.85;;;16.30;99.90;;;;;;5072009;28;20048;-71
2023/08/18 05:40:53;;;;;;;18.83;9.73;;;16.30;99.90;;;;;;5071711;28;20056;-72
2023/08/18 05:43:19;;;;;;;15.15;8.80;;;16.30;99.90;;;;;;5071857;28;20504;-72
2023/08/18 05:45:46;;;;;;;14.90;8.30;;;16.30;99.90;;;;;;5071492;28;20055;-72
2023/08/18 05:48:13;;;;;;;15.23;8.75;;;16.40;99.90;;;;;;5071567;28;20041;-73
2023/08/18 05:50:40;;;;;;;14.60;7.93;;;16.40;99.90;;;;;;5073676;28;20040;-72
2023/08/18 05:53:06;;;;;;;15.13;9.23;;;16.40;99.90;;;;;;5076081;28;20071;-72
2023/08/18 05:55:33;;;;;;;12.70;8.15;;;16.40;99.90;;;;;;5075919;28;20445;-71
2023/08/18 05:58:09;;;;;;;12.32;7.82;;;16.40;99.90;;;;;;5075247;28;20123;-73
2023/08/18 06:00:53;;;;;;;15.02;9.32;;;16.50;99.90;;;;;;5075679;28;20089;-73
2023/08/18 06:03:19;;;;;;;13.98;8.45;;;16.50;99.90;;;;;;5058577;28;20048;-72
2023/08/18 06:05:48;;;;;;;11.00;7.82;;;16.50;99.90;;;;;;5075252;28;20128;-72
2023/08/18 06:08:14;;;;;;;13.95;8.73;;;16.50;99.90;;;;;;5075446;28;20514;-71
2023/08/18 06:10:57;;;;;;;12.55;8.00;;;16.50;99.90;;;;;;5076340;28;20041;-72
2023/08/18 06:13:36;;;;;;;14.15;8.52;;;16.60;99.90;;;;;;5075206;28;20041;-71
2023/08/18 06:16:05;;;;;;;14.30;8.50;;;16.60;99.90;;;;;;5075192;28;20037;-71
2023/08/18 06:18:34;;;;;;;14.02;8.52;;;16.60;99.90;;;;;;5075042;28;20039;-72
2023/08/18 06:21:00;;;;;;;10.77;7.25;;;16.60;99.90;;;;;;5058470;28;20045;-71
2023/08/18 06:23:26;;;;;;;13.48;8.30;;;16.60;99.90;;;;;;5074844;28;20040;-72
2023/08/18 06:25:56;;;;;;;13.43;8.63;;;16.70;99.90;;;;;;5074871;28;20534;-71
2023/08/18 06:28:22;;;;;;;12.52;8.38;;;16.60;99.90;;;;;;5074913;28;20044;-71
2023/08/18 06:30:51;;;;;;;18.52;9.57;;;16.60;99.90;;;;;;5074690;28;20051;-72
2023/08/18 06:33:17;;;;;;;14.05;8.27;;;16.60;99.90;;;;;;5042110;28;20048;-72
2023/08/18 06:35:43;;;;;;;15.07;8.32;;;16.60;99.90;;;;;;5074635;28;20041;-72
2023/08/18 06:38:09;;;;;;;14.13;9.20;;;16.60;99.90;;;;;;5076920;28;20089;-67
2023/08/18 06:40:34;;;;;;;14.85;9.35;;;16.60;99.90;;;;;;5078252;28;20040;-66
2023/08/18 06:43:06;;;;;;;13.40;8.45;;;16.70;99.90;;;;;;5077776;28;20085;-67
2023/08/18 06:45:32;;;;;;;;;;;16.80;99.90;;;;;;5078408;28;20036;-67
2023/08/18 06:47:58;;;;;;;12.95;8.40;;;16.80;99.90;;;;;;5077655;28;19923;-66
2023/08/18 06:50:23;;;;;;;15.05;8.52;;;16.80;99.90;;;;;;5077584;28;20040;-66
2023/08/18 06:52:49;;;;;;;15.13;8.88;;;16.90;99.90;;;;;;5060890;28;20119;-64
2023/08/18 06:55:15;;;;;;;14.23;8.55;;;16.90;99.90;;;;;;5060825;28;20497;-67
2023/08/18 06:57:41;;;;;;;16.30;9.13;;;17.00;99.90;;;;;;5077786;28;20110;-66
2023/08/18 07:00:09;;;;;;;15.68;8.45;;;17.00;99.90;;;;;;5060873;28;20031;-66
2023/08/18 07:02:41;;;;;;;14.85;8.88;;;17.00;99.90;;;;;;5077381;28;20075;-66
2023/08/18 07:05:07;;;;;;;;;;;17.00;99.90;;;;;;5061442;28;20043;-67
2023/08/18 07:07:36;;;;;;;17.60;10.65;;;17.00;99.90;;;;;;5077679;28;19916;-65
2023/08/18 07:10:05;;;;;;;20.80;11.10;;;17.10;99.90;;;;;;5045052;28;20054;-66
2023/08/18 07:12:34;;;;;;;21.17;12.18;;;17.20;99.90;;;;;;5095479;28;20044;-67
2023/08/18 07:15:09;;;;;;;22.50;11.60;;;17.20;99.90;;;;;;5077112;28;20054;-67
2023/08/18 07:17:35;;;;;;;19.88;11.82;;;17.20;99.90;;;;;;5077276;28;20081;-67
2023/08/18 07:20:00;;;;;;;25.55;13.32;;;17.20;99.90;;;;;;5060405;28;20044;-67
2023/08/18 07:22:26;;;;;;;22.20;12.00;;;17.20;99.90;;;;;;5050336;28;20564;-65
2023/08/18 07:24:52;;;;;;;21.85;11.80;;;17.30;99.90;;;;;;5060216;28;20096;-65
2023/08/18 07:27:18;;;;;;;23.08;12.52;;;17.30;99.90;;;;;;5043691;28;20044;-66
2023/08/18 07:29:48;;;;;;;25.33;13.07;;;17.40;99.90;;;;;;5076896;28;20071;-66
2023/08/18 07:32:14;;;;;;;28.05;14.55;;;17.40;99.90;;;;;;5060463;28;20051;-66
2023/08/18 07:34:40;;;;;;;26.33;14.07;;;17.40;99.90;;;;;;5060512;28;20136;-66
2023/08/18 07:37:13;;;;;;;25.95;13.43;;;17.40;99.90;;;;;;5060180;28;20172;-66
2023/08/18 07:39:41;;;;;;;27.35;14.30;;;17.40;99.90;;;;;;5061049;28;20104;-66
2023/08/18 07:42:08;;;;;;;28.38;14.13;;;17.40;99.90;;;;;;5077060;28;20403;-67
2023/08/18 07:44:34;;;;;;;28.15;15.35;;;17.40;99.90;;;;;;5076910;28;20178;-66
2023/08/18 07:47:00;;;;;;;29.13;14.30;;;17.40;99.90;;;;;;5076605;28;20086;-65
2023/08/18 07:49:26;;;;;;;30.50;15.45;;;17.50;99.90;;;;;;5076492;28;20419;-66
2023/08/18 07:51:52;;;;;;;28.02;14.10;;;17.50;99.90;;;;;;5093697;28;20039;-66
2023/08/18 07:54:18;;;;;;;27.05;13.35;;;17.50;99.90;;;;;;5059796;28;20130;-66
2023/08/18 07:56:44;;;;;;;26.80;13.85;;;17.50;99.90;;;;;;5036420;28;20045;-65
2023/08/18 07:59:09;;;;;;;29.65;14.45;;;17.60;99.90;;;;;;5070366;28;20085;-67
2023/08/18 08:01:42;;;;;;;34.90;15.57;;;17.60;99.90;;;;;;5059575;28;20042;-66
2023/08/18 08:04:18;;;;;;;29.55;14.80;;;17.60;99.90;;;;;;5061126;28;20036;-65
2023/08/18 08:06:43;;;;;;;28.67;14.65;;;17.70;99.90;;;;;;5059661;28;20407;-67
2023/08/18 08:09:09;;;;;;;29.33;15.05;;;17.70;99.90;;;;;;5076130;28;20048;-65
2023/08/18 08:11:35;;;;;;;29.55;14.85;;;17.80;99.90;;;;;;5076075;28;20040;-66
2023/08/18 08:14:01;;;;;;;29.08;14.15;;;17.90;99.90;;;;;;5059251;28;20540;-72
2023/08/18 08:16:27;;;;;;;27.58;13.88;;;18.00;99.90;;;;;;5059905;28;20048;-71
2023/08/18 08:18:53;;;;;;;26.70;14.40;;;18.10;99.90;;;;;;5093441;28;20044;-71
2023/08/18 08:21:19;;;;;;;26.10;13.52;;;18.10;99.90;;;;;;5076485;28;20044;-72
2023/08/18 08:23:44;;;;;;;24.55;13.93;;;18.20;99.90;;;;;;5076301;28;20050;-72
2023/08/18 08:26:13;;;;;;;25.15;13.05;;;18.10;99.90;;;;;;5076396;28;20044;-71
2023/08/18 08:28:39;;;;;;;23.88;12.95;;;18.30;99.90;;;;;;5076450;28;20062;-72
2023/08/18 08:31:05;;;;;;;25.20;12.80;;;18.50;99.90;;;;;;5075953;28;20044;-71
2023/08/18 08:33:31;;;;;;;22.20;12.05;;;18.50;99.90;;;;;;5075566;28;20052;-72
2023/08/18 08:35:57;;;;;;;22.33;11.65;;;18.60;99.90;;;;;;5076422;28;20043;-73
2023/08/18 08:38:23;;;;;;;22.73;11.85;;;18.70;99.90;;;;;;5072635;28;20044;-73
2023/08/18 08:41:01;;;;;;;20.73;11.40;;;18.80;99.90;;;;;;5055905;28;20131;-71
2023/08/18 08:43:27;;;;;;;17.02;10.00;;;18.90;99.90;;;;;;5056127;28;20052;-71
2023/08/18 08:45:58;;;;;;;18.35;10.25;;;19.00;99.90;;;;;;5072340;28;20078;-73
2023/08/18 08:48:31;;;;;;;19.35;10.52;;;19.20;99.90;;;;;;5055825;28;20052;-73
2023/08/18 08:51:00;;;;;;;17.35;9.68;;;19.30;99.90;;;;;;5072425;28;20048;-71
2023/08/18 08:53:32;;;;;;;18.67;10.00;;;19.30;99.90;;;;;;5072552;28;20048;-72
2023/08/18 08:56:07;;;;;;;17.50;11.05;;;19.40;99.90;;;;;;5072718;28;20045;-70
2023/08/18 08:58:34;;;;;;;16.73;9.90;;;19.40;99.90;;;;;;5072749;28;20119;-71
2023/08/18 09:01:10;;;;;;;17.70;9.70;;;19.50;99.90;;;;;;5072961;28;20546;-71
2023/08/18 09:03:43;;;;;;;17.52;9.85;;;19.60;99.90;;;;;;5057608;28;20041;-71
2023/08/18 09:06:11;;;;;;;18.25;10.52;;;19.70;99.90;;;;;;5072287;28;20407;-72
2023/08/18 09:08:37;;;;;;;19.05;10.57;;;19.70;99.90;;;;;;5055731;28;20048;-72
2023/08/18 09:11:09;;;;;;;17.58;10.23;;;19.80;99.90;;;;;;5072447;28;20067;-71
2023/08/18 09:13:36;;;;;;;16.83;9.90;;;19.90;99.90;;;;;;5055579;28;20041;-71
2023/08/18 09:16:11;;;;;;;17.00;9.43;;;19.90;99.90;;;;;;5072377;28;20051;-71
2023/08/18 09:18:55;;;;;;;17.13;10.20;;;20.00;99.90;;;;;;5045834;28;20067;-72
2023/08/18 09:21:28;;;;;;;18.98;10.27;;;20.10;99.90;;;;;;5072146;28;20036;-72
2023/08/18 09:23:57;;;;;;;18.55;9.95;;;20.10;99.90;;;;;;5055128;28;20045;-73
2023/08/18 09:26:29;;;;;;;16.52;10.23;;;20.20;99.90;;;;;;5021322;28;20040;-72
2023/08/18 09:28:54;;;;;;;15.98;10.30;;;20.40;99.90;;;;;;5039887;28;20455;-71
2023/08/18 09:31:20;;;;;;;14.75;9.77;;;20.30;99.90;;;;;;5056437;28;20131;-72
2023/08/18 09:33:46;;;;;;;15.77;9.95;;;20.30;99.90;;;;;;5056466;28;20049;-71
2023/08/18 09:36:13;;;;;;;16.88;10.70;;;20.30;99.90;;;;;;5057168;28;20400;-72
2023/08/18 09:38:42;;;;;;;14.98;9.60;;;20.30;99.90;;;;;;5056491;28;20053;-73
2023/08/18 09:41:09;;;;;;;16.90;10.90;;;20.40;99.90;;;;;;5056331;28;20507;-74
2023/08/18 09:43:41;;;;;;;15.50;9.48;;;20.50;99.90;;;;;;5023326;28;20395;-73
2023/08/18 09:46:21;;;;;;;13.75;9.52;;;20.60;99.90;;;;;;5057422;28;20067;-73
2023/08/18 09:48:49;;;;;;;14.98;9.00;;;20.50;99.90;;;;;;5056229;28;20044;-71
2023/08/18 09:51:19;;;;;;;15.02;9.30;;;20.60;99.90;;;;;;5056108;28;20045;-73
2023/08/18 09:53:58;;;;;;;12.40;8.45;;;20.60;99.90;;;;;;5056294;28;20156;-72
2023/08/18 09:56:27;;;;;;;12.32;8.50;;;20.60;99.90;;;;;;5055652;28;20044;-72
2023/08/18 09:59:20;;;;;;;14.13;9.18;;;20.60;99.90;;;;;;5056207;28;20119;-73
2023/08/18 10:01:49;;;;;;;13.07;8.32;;;20.70;99.90;;;;;;4959776;28;20507;-73
2023/08/18 10:04:17;;;;;;;14.07;8.60;;;20.80;99.90;;;;;;5046141;28;20056;-74
2023/08/18 10:06:45;;;;;;;12.30;8.77;;;20.90;99.90;;;;;;5039009;28;20082;-72
2023/08/18 10:09:12;;;;;;;11.90;8.70;;;21.00;99.90;;;;;;5056876;28;20052;-72
2023/08/18 10:11:39;;;;;;;12.88;9.05;;;21.10;99.90;;;;;;5039132;28;20048;-72
2023/08/18 10:14:06;;;;;;;13.77;9.40;;;21.10;99.90;;;;;;5039626;28;20033;-72
2023/08/18 10:16:33;;;;;;;11.98;8.88;;;21.10;99.90;;;;;;5022921;28;20036;-72
2023/08/18 10:19:02;;;;;;;12.35;8.57;;;21.20;99.90;;;;;;4946129;28;20049;-73
2023/08/18 10:21:28;;;;;;;12.18;8.57;;;21.30;99.90;;;;;;5039319;28;20040;-72
2023/08/18 10:23:54;;;;;;;12.93;9.55;;;21.30;99.90;;;;;;5039362;28;20039;-73
2023/08/18 10:26:24;;;;;;;12.15;8.50;;;21.40;99.90;;;;;;5055653;28;20049;-72
2023/08/18 10:29:17;;;;;;;12.43;9.20;;;21.60;99.90;;;;;;5040605;28;20071;-71
2023/08/18 10:31:52;;;;;;;12.75;8.95;;;21.60;99.90;;;;;;5055266;28;20135;-71
2023/08/18 10:34:22;;;;;;;10.80;8.43;;;21.70;99.90;;;;;;5038971;28;20041;-72
2023/08/18 10:36:48;;;;;;;11.60;8.70;;;21.90;99.90;;;;;;5038462;28;20087;-71
2023/08/18 10:39:24;;;;;;;11.75;8.98;;;22.00;99.90;;;;;;5054936;28;20045;-72
2023/08/18 10:42:13;;;;;;;10.45;8.38;;;22.20;99.90;;;;;;5055383;28;20095;-73
2023/08/18 10:45:06;;;;;;;10.95;8.10;;;22.20;99.90;;;;;;5038614;28;20043;-72
2023/08/18 10:47:33;;;;;;;12.77;9.70;;;22.40;99.90;;;;;;5072110;28;20076;-73
2023/08/18 10:50:00;;;;;;;12.52;8.65;;;22.80;99.90;;;;;;5054990;28;20407;-72
2023/08/18 10:52:35;;;;;;;12.00;9.35;;;23.10;99.90;;;;;;5054587;28;20123;-72
2023/08/18 10:55:01;;;;;;;11.40;9.00;;;23.30;99.90;;;;;;5038044;28;20045;-71
2023/08/18 10:57:31;;;;;;;12.65;9.80;;;23.60;99.90;;;;;;5055278;28;20045;-73
2023/08/18 10:59:57;;;;;;;13.25;9.93;;;23.70;99.90;;;;;;5054911;28;20501;-72
2023/08/18 11:02:22;;;;;;;11.45;9.20;;;23.80;99.90;;;;;;5054904;28;20033;-73
2023/08/18 11:04:50;;;;;;;12.70;9.77;;;23.90;99.90;;;;;;5054504;28;20041;-73
2023/08/18 11:07:18;;;;;;;12.43;9.88;;;23.90;99.90;;;;;;5038094;28;20037;-72
2023/08/18 11:09:47;;;;;;;11.82;8.55;;;23.90;99.90;;;;;;5038096;28;20378;-73
2023/08/18 11:12:16;;;;;;;12.73;10.63;;;24.30;99.90;;;;;;5037750;28;20080;-72
2023/08/18 11:14:43;;;;;;;12.85;10.52;;;24.70;99.90;;;;;;5037869;28;20050;-71
2023/08/18 11:17:14;;;;;;;11.65;9.45;;;24.70;99.90;;;;;;5022512;28;20094;-67
2023/08/18 11:19:40;;;;;;;13.02;10.60;;;24.90;99.90;;;;;;5037723;28;20072;-67
2023/08/18 11:22:06;;;;;;;13.38;11.25;;;24.80;99.90;;;;;;5021066;28;20085;-69
2023/08/18 11:24:34;;;;;;;16.15;10.07;;;24.70;99.90;;;;;;5054038;28;20101;-67
2023/08/18 11:27:01;;;;;;;14.05;11.70;;;24.70;99.90;;;;;;5053766;28;20067;-69
2023/08/18 11:29:27;;;;;;;13.27;10.85;;;24.50;99.90;;;;;;5053835;28;20048;-67
2023/08/18 11:31:53;;;;;;;15.63;11.50;;;24.20;99.90;;;;;;5053474;28;20063;-68
2023/08/18 11:34:20;;;;;;;14.88;12.48;;;24.20;99.90;;;;;;5053421;28;20071;-70
2023/08/18 11:36:46;;;;;;;15.27;13.07;;;24.10;99.90;;;;;;5020921;28;20041;-68
2023/08/18 11:39:15;;;;;;;14.65;11.85;;;24.10;99.90;;;;;;5069951;28;20061;-67
2023/08/18 11:41:43;;;;;;;16.05;12.27;;;24.10;99.90;;;;;;5020635;28;20077;-68
2023/08/18 11:44:10;;;;;;;17.83;13.25;;;24.00;99.90;;;;;;5053340;28;20049;-67
2023/08/18 11:46:38;;;;;;;14.45;12.88;;;23.90;99.90;;;;;;5053417;28;20049;-68
2023/08/18 11:49:22;;;;;;;14.88;12.70;;;23.90;99.90;;;;;;5053053;28;20527;-66
2023/08/18 11:52:04;;;;;;;17.00;12.63;;;23.90;99.90;;;;;;5020392;28;20044;-67
2023/08/18 11:54:33;;;;;;;15.65;12.10;;;23.90;99.90;;;;;;5053167;28;20052;-66
2023/08/18 11:56:59;;;;;;;15.20;11.27;;;24.00;99.90;;;;;;5036989;28;20495;-65
2023/08/18 11:59:25;;;;;;;16.05;10.95;;;24.10;99.90;;;;;;5053375;28;20041;-66
2023/08/18 12:02:07;;;;;;;15.45;12.65;;;24.50;99.90;;;;;;5036419;28;20128;-67
2023/08/18 12:04:34;;;;;;;14.57;12.32;;;24.90;99.90;;;;;;5053366;28;20401;-67
2023/08/18 12:07:00;;;;;;;14.90;12.20;;;25.30;99.90;;;;;;5052788;28;20110;-69
2023/08/18 12:09:26;;;;;;;15.43;12.85;;;25.30;99.90;;;;;;5036077;28;20048;-67
2023/08/18 12:11:52;;;;;;;16.75;12.57;;;25.30;99.90;;;;;;5053117;28;20087;-67
2023/08/18 12:14:18;;;;;;;13.98;12.18;;;25.00;99.90;;;;;;5052487;28;20047;-67
2023/08/18 12:16:45;;;;;;;15.73;12.25;;;24.80;99.90;;;;;;5052703;28;20032;-67
2023/08/18 12:19:21;;;;;;;16.38;12.95;;;24.60;99.90;;;;;;5036342;28;20067;-66
2023/08/18 12:21:47;;;;;;;15.50;11.45;;;24.60;99.90;;;;;;5004345;28;20040;-66
2023/08/18 12:24:13;;;;;;;15.90;12.07;;;24.60;99.90;;;;;;5052881;28;20111;-67
2023/08/18 12:26:39;;;;;;;15.00;11.98;;;24.70;99.90;;;;;;5036072;28;20044;-66
2023/08/18 12:29:05;;;;;;;14.55;12.55;;;25.00;99.90;;;;;;5019600;28;20465;-65
2023/08/18 12:31:31;;;;;;;13.98;10.80;;;25.20;99.90;;;;;;5035943;28;20041;-68
2023/08/18 12:33:57;;;;;;;14.70;11.85;;;25.40;99.90;;;;;;5035801;28;20045;-67
2023/08/18 12:36:25;;;;;;;14.32;10.77;;;25.80;99.90;;;;;;5019597;28;20045;-67
2023/08/18 12:38:51;;;;;;;15.27;12.38;;;25.80;99.90;;;;;;5035827;28;20057;-66
2023/08/18 12:41:16;;;;;;;15.68;12.25;;;25.80;99.90;;;;;;5019231;28;20037;-65
2023/08/18 12:43:42;;;;;;;16.13;11.50;;;25.50;99.90;;;;;;5035691;28;20045;-66
2023/08/18 12:46:08;;;;;;;19.20;13.40;;;25.30;99.90;;;;;;5053527;28;20044;-66
2023/08/18 12:48:37;;;;;;;15.60;12.30;;;25.30;99.90;;;;;;5052141;28;20396;-67